Time;durP1;ratioP1;P1;durP2;ratioP2;P2;SDS_P1;SDS_P2;PMS_P1;PMS_P2;Temp;Humidity;BMP_temperature;BMP_pressure;BME280_temperature;BME280_humidity;BME280_pressure;Samples;Min_cycle;Max_cycle;Signal;HPM_P1;HPM_P2
2022/09/14 00:01:43;;;;;;;45.58;42.80;;;;;;;;;;10192906;28;20049;-72
2022/09/14 00:06:40;;;;;;;50.88;47.58;;;;;;;;;;10192300;28;20073;-72
2022/09/14 00:11:36;;;;;;;52.47;48.95;;;;;;;;;;10153105;28;20049;-73
2022/09/14 00:16:34;;;;;;;40.90;38.55;;;;;;;;;;10164597;28;20050;-72
2022/09/14 00:21:31;;;;;;;42.88;39.97;;;;;;;;;;10153079;28;20610;-72
2022/09/14 00:26:27;;;;;;;53.67;50.42;;;;;;;;;;10187877;28;20422;-72
2022/09/14 00:31:24;;;;;;;49.85;46.92;;;;;;;;;;10192243;28;20064;-72
2022/09/14 00:36:23;;;;;;;51.53;48.50;;;;;;;;;;10192091;28;20046;-72
2022/09/14 00:41:20;;;;;;;49.90;46.97;;;;;;;;;;10191404;28;20507;-72
2022/09/14 00:46:17;;;;;;;45.38;42.35;;;;;;;;;;10191926;28;20046;-72
2022/09/14 00:51:14;;;;;;;48.60;45.92;;;;;;;;;;10191632;28;20037;-72
2022/09/14 00:56:11;;;;;;;54.17;50.95;;;;;;;;;;10193898;28;20046;-72
2022/09/14 01:01:08;;;;;;;53.72;50.63;;;;;;;;;;10180327;28;20034;-72
2022/09/14 01:06:26;;;;;;;44.40;41.55;;;;;;;;;;10182556;28;20060;-71
2022/09/14 01:11:41;;;;;;;50.88;47.50;;;;;;;;;;10198244;28;20393;-71
2022/09/14 01:16:45;;;;;;;49.83;46.88;;;;;;;;;;10193462;28;20049;-72
2022/09/14 01:21:43;;;;;;;50.40;46.47;;;;;;;;;;10196205;28;20132;-72
2022/09/14 01:26:51;;;;;;;50.22;47.50;;;;;;;;;;10187537;28;20045;-72
2022/09/14 01:31:51;;;;;;;51.38;48.50;;;;;;;;;;10186560;28;20046;-72
2022/09/14 01:36:50;;;;;;;57.33;51.40;;;;;;;;;;10187927;28;20559;-72
2022/09/14 01:41:47;;;;;;;59.17;55.83;;;;;;;;;;10179969;28;20508;-72
2022/09/14 01:46:46;;;;;;;51.97;49.00;;;;;;;;;;10187004;28;20500;-72
2022/09/14 01:51:45;;;;;;;57.45;54.25;;;;;;;;;;10169300;28;20065;-72
2022/09/14 01:56:48;;;;;;;61.05;57.35;;;;;;;;;;10186843;28;20046;-72
2022/09/14 02:01:44;;;;;;;;;;;;;;;;;;10168302;28;20069;-72
2022/09/14 02:06:45;;;;;;;64.22;60.72;;;;;;;;;;10184832;28;20387;-72
2022/09/14 02:11:42;;;;;;;61.75;58.25;;;;;;;;;;10156252;28;20409;-72
2022/09/14 02:16:42;;;;;;;62.92;59.10;;;;;;;;;;10184973;28;20046;-72
2022/09/14 02:21:39;;;;;;;64.88;61.15;;;;;;;;;;10156095;28;20046;-72
2022/09/14 02:26:35;;;;;;;69.10;64.88;;;;;;;;;;10178024;28;20061;-71
2022/09/14 02:31:45;;;;;;;72.30;68.30;;;;;;;;;;10156177;28;20050;-71
2022/09/14 02:36:56;;;;;;;94.22;89.38;;;;;;;;;;10159626;28;20057;-72
2022/09/14 02:41:57;;;;;;;96.05;90.72;;;;;;;;;;10155935;28;20050;-71
2022/09/14 02:46:57;;;;;;;89.70;84.53;;;;;;;;;;10186704;28;20049;-72
2022/09/14 02:52:02;;;;;;;94.45;89.13;;;;;;;;;;10194497;28;20042;-72
2022/09/14 02:56:59;;;;;;;91.38;86.30;;;;;;;;;;10186257;28;20053;-72
2022/09/14 03:01:57;;;;;;;93.82;88.68;;;;;;;;;;10186967;28;20065;-72
2022/09/14 03:06:53;;;;;;;85.53;80.35;;;;;;;;;;10186007;28;20504;-71
2022/09/14 03:11:50;;;;;;;89.47;84.78;;;;;;;;;;10180411;28;20061;-72
2022/09/14 03:16:46;;;;;;;85.50;80.97;;;;;;;;;;10184352;28;20528;-73
2022/09/14 03:21:42;;;;;;;89.40;84.22;;;;;;;;;;10178434;28;20047;-72
2022/09/14 03:26:38;;;;;;;81.45;77.13;;;;;;;;;;10193800;28;20050;-71
2022/09/14 03:31:35;;;;;;;83.95;79.43;;;;;;;;;;10160244;28;20050;-71
2022/09/14 03:36:31;;;;;;;73.15;69.13;;;;;;;;;;10170303;28;20051;-72
2022/09/14 03:41:28;;;;;;;84.40;79.43;;;;;;;;;;10153277;28;20038;-71
2022/09/14 03:46:24;;;;;;;82.53;78.20;;;;;;;;;;10180528;28;20042;-71
2022/09/14 03:51:21;;;;;;;80.05;74.97;;;;;;;;;;10193777;28;20491;-72
2022/09/14 03:56:18;;;;;;;83.82;79.30;;;;;;;;;;10192407;28;20046;-72
2022/09/14 04:01:16;;;;;;;91.68;86.80;;;;;;;;;;10193155;28;20542;-72
2022/09/14 04:06:13;;;;;;;85.70;81.25;;;;;;;;;;10192409;28;20061;-72
2022/09/14 04:11:10;;;;;;;84.90;80.05;;;;;;;;;;10185128;28;20052;-72
2022/09/14 04:16:07;;;;;;;85.50;80.57;;;;;;;;;;10177728;28;20053;-71
2022/09/14 04:21:05;;;;;;;85.65;80.88;;;;;;;;;;10168896;28;20070;-72
2022/09/14 04:26:11;;;;;;;89.13;84.28;;;;;;;;;;10177065;28;20042;-72
2022/09/14 04:31:08;;;;;;;87.03;82.15;;;;;;;;;;10194290;28;20046;-72
2022/09/14 04:36:08;;;;;;;96.47;90.97;;;;;;;;;;10198498;28;20042;-72
2022/09/14 04:41:10;;;;;;;103.50;98.00;;;;;;;;;;10160427;28;20169;-72
2022/09/14 04:46:08;;;;;;;83.50;78.68;;;;;;;;;;10184070;28;20506;-71
2022/09/14 04:51:06;;;;;;;80.55;75.90;;;;;;;;;;10199354;28;20041;-72
2022/09/14 04:56:03;;;;;;;76.35;72.15;;;;;;;;;;10198523;28;20447;-72
2022/09/14 05:01:03;;;;;;;75.07;70.50;;;;;;;;;;10199274;28;20423;-71
2022/09/14 05:06:00;;;;;;;64.13;60.15;;;;;;;;;;10198520;28;20396;-72
2022/09/14 05:10:57;;;;;;;55.67;52.10;;;;;;;;;;10198866;28;20503;-71
2022/09/14 05:15:53;;;;;;;54.10;50.65;;;;;;;;;;10197911;28;20411;-72
2022/09/14 05:20:50;;;;;;;50.70;47.58;;;;;;;;;;10197208;28;20076;-72
2022/09/14 05:25:51;;;;;;;51.80;48.60;;;;;;;;;;10198126;28;20042;-71
2022/09/14 05:30:48;;;;;;;50.23;46.17;;;;;;;;;;10197671;28;20067;-72
2022/09/14 05:35:44;;;;;;;48.97;46.03;;;;;;;;;;10196839;28;20124;-72
2022/09/14 05:40:41;;;;;;;48.05;45.05;;;;;;;;;;10172938;28;20460;-72
2022/09/14 05:45:37;;;;;;;35.70;33.35;;;;;;;;;;10177817;28;20406;-71
2022/09/14 05:50:33;;;;;;;33.33;31.00;;;;;;;;;;10166659;28;20046;-72
2022/09/14 05:55:29;;;;;;;35.53;33.13;;;;;;;;;;10191880;28;20052;-72
2022/09/14 06:00:26;;;;;;;32.03;29.70;;;;;;;;;;10166276;28;20042;-72
2022/09/14 06:05:24;;;;;;;32.72;30.40;;;;;;;;;;10174919;28;20121;-72
2022/09/14 06:10:20;;;;;;;28.95;26.80;;;;;;;;;;10196541;28;20050;-72
2022/09/14 06:15:16;;;;;;;24.48;22.55;;;;;;;;;;10195598;28;20045;-71
2022/09/14 06:20:13;;;;;;;26.33;24.30;;;;;;;;;;10196502;28;20045;-71
2022/09/14 06:25:10;;;;;;;25.13;22.92;;;;;;;;;;10182095;28;20061;-71
2022/09/14 06:30:06;;;;;;;23.42;21.35;;;;;;;;;;10196246;28;20050;-71
2022/09/14 06:35:03;;;;;;;22.00;20.30;;;;;;;;;;10177308;28;20046;-72
2022/09/14 06:40:03;;;;;;;22.98;21.30;;;;;;;;;;10195354;28;20064;-71
2022/09/14 06:45:00;;;;;;;22.85;20.92;;;;;;;;;;10195309;28;20064;-72
2022/09/14 06:49:56;;;;;;;22.85;21.27;;;;;;;;;;10193608;28;20045;-71
2022/09/14 06:54:52;;;;;;;24.27;22.10;;;;;;;;;;10195291;28;20050;-72
2022/09/14 06:59:49;;;;;;;24.88;22.95;;;;;;;;;;10194235;28;20045;-73
2022/09/14 07:04:45;;;;;;;23.65;21.77;;;;;;;;;;10194667;28;20049;-72
2022/09/14 07:09:41;;;;;;;23.15;20.92;;;;;;;;;;10174960;28;20049;-72
2022/09/14 07:14:37;;;;;;;23.55;21.65;;;;;;;;;;10167089;28;20554;-72
2022/09/14 07:19:33;;;;;;;26.02;23.73;;;;;;;;;;10164554;28;20054;-72
2022/09/14 07:24:30;;;;;;;24.70;22.27;;;;;;;;;;10166344;28;20041;-72
2022/09/14 07:29:26;;;;;;;25.30;23.40;;;;;;;;;;10193230;28;20503;-72
2022/09/14 07:34:23;;;;;;;28.23;25.50;;;;;;;;;;10193356;28;20044;-72
2022/09/14 07:39:20;;;;;;;25.45;23.33;;;;;;;;;;10193470;28;20115;-72
2022/09/14 07:44:16;;;;;;;26.10;23.98;;;;;;;;;;10191896;28;20057;-71
2022/09/14 07:49:14;;;;;;;25.38;23.30;;;;;;;;;;10193070;28;20054;-72
2022/09/14 07:54:11;;;;;;;23.10;21.27;;;;;;;;;;10192553;28;20038;-72
2022/09/14 07:59:11;;;;;;;20.63;19.02;;;;;;;;;;10192876;28;20041;-71
2022/09/14 08:04:27;;;;;;;21.15;19.45;;;;;;;;;;10163551;28;20482;-72
2022/09/14 08:09:24;;;;;;;22.45;20.52;;;;;;;;;;10199849;28;20415;-72
2022/09/14 08:14:21;;;;;;;21.42;19.45;;;;;;;;;;10201355;28;20537;-71
2022/09/14 08:19:19;;;;;;;17.52;15.85;;;;;;;;;;10200227;28;20053;-72
2022/09/14 08:24:17;;;;;;;17.15;15.43;;;;;;;;;;10200293;28;20050;-72
2022/09/14 08:29:14;;;;;;;15.52;14.27;;;;;;;;;;10200277;28;20046;-72
2022/09/14 08:34:11;;;;;;;15.77;14.40;;;;;;;;;;10199853;28;20172;-72
2022/09/14 08:39:10;;;;;;;20.23;16.15;;;;;;;;;;10199866;28;20508;-72
2022/09/14 08:44:09;;;;;;;16.92;15.38;;;;;;;;;;10199450;28;20052;-72
2022/09/14 08:49:11;;;;;;;16.55;15.02;;;;;;;;;;10199756;28;20058;-72
2022/09/14 08:54:08;;;;;;;14.70;13.38;;;;;;;;;;10199050;28;20132;-71
2022/09/14 08:59:15;;;;;;;12.50;11.30;;;;;;;;;;10199412;28;20261;-72
2022/09/14 09:04:16;;;;;;;11.27;10.27;;;;;;;;;;10172221;28;20053;-72
2022/09/14 09:09:26;;;;;;;12.27;10.38;;;;;;;;;;10198363;28;20050;-72
2022/09/14 09:14:22;;;;;;;11.70;10.48;;;;;;;;;;10198774;28;20056;-73
2022/09/14 09:19:22;;;;;;;11.80;10.70;;;;;;;;;;10198455;28;20042;-73
2022/09/14 09:24:38;;;;;;;11.32;10.32;;;;;;;;;;10198130;28;20048;-73
2022/09/14 09:29:34;;;;;;;10.98;8.75;;;;;;;;;;10198235;28;20570;-73
2022/09/14 09:34:32;;;;;;;10.18;9.25;;;;;;;;;;10197504;28;20053;-73
2022/09/14 09:39:30;;;;;;;9.23;8.38;;;;;;;;;;10197708;28;20046;-72
2022/09/14 09:44:26;;;;;;;9.13;8.23;;;;;;;;;;10197120;28;20687;-72
2022/09/14 09:49:25;;;;;;;9.98;8.88;;;;;;;;;;10197162;28;20053;-72
2022/09/14 09:54:23;;;;;;;9.68;8.82;;;;;;;;;;10196700;28;20529;-72
2022/09/14 09:59:35;;;;;;;10.45;9.32;;;;;;;;;;10196962;28;20046;-72
2022/09/14 10:04:34;;;;;;;11.05;10.00;;;;;;;;;;10169949;28;20050;-73
2022/09/14 10:09:30;;;;;;;10.05;9.07;;;;;;;;;;10196075;28;20061;-72
2022/09/14 10:14:33;;;;;;;9.50;8.70;;;;;;;;;;10196165;28;20042;-73
2022/09/14 10:19:30;;;;;;;10.48;8.68;;;;;;;;;;10195451;28;20050;-71
2022/09/14 10:24:26;;;;;;;9.52;8.60;;;;;;;;;;10196218;28;20060;-72
2022/09/14 10:29:34;;;;;;;11.90;9.48;;;;;;;;;;10194633;28;20060;-72
2022/09/14 10:34:30;;;;;;;11.80;9.18;;;;;;;;;;10195731;28;20072;-71
2022/09/14 10:39:34;;;;;;;12.20;9.68;;;;;;;;;;10194827;28;20046;-72
2022/09/14 10:44:39;;;;;;;9.65;8.75;;;;;;;;;;10195518;28;20050;-72
2022/09/14 10:49:47;;;;;;;9.70;8.85;;;;;;;;;;10194799;28;20056;-73
2022/09/14 10:54:46;;;;;;;12.80;9.20;;;;;;;;;;10194983;28;20053;-72
2022/09/14 10:59:42;;;;;;;10.98;9.13;;;;;;;;;;10194130;28;20064;-72
2022/09/14 11:04:58;;;;;;;9.70;8.70;;;;;;;;;;10194269;28;20038;-72
2022/09/14 11:10:14;;;;;;;9.77;8.77;;;;;;;;;;10193259;28;20045;-72
2022/09/14 11:15:17;;;;;;;9.32;8.48;;;;;;;;;;10193117;28;20815;-72
2022/09/14 11:20:14;;;;;;;11.75;8.63;;;;;;;;;;10194952;28;20385;-72
2022/09/14 11:25:16;;;;;;;9.20;8.35;;;;;;;;;;10186384;28;20050;-71
2022/09/14 11:30:14;;;;;;;9.85;8.95;;;;;;;;;;10193904;28;20050;-71
2022/09/14 11:35:19;;;;;;;11.13;9.00;;;;;;;;;;10192728;28;20042;-72
2022/09/14 11:40:19;;;;;;;9.82;8.77;;;;;;;;;;10192920;28;20703;-72
2022/09/14 11:45:21;;;;;;;10.23;8.30;;;;;;;;;;10193715;28;20420;-72
2022/09/14 11:50:19;;;;;;;12.10;9.00;;;;;;;;;;10193594;28;20052;-72
2022/09/14 11:55:17;;;;;;;10.32;9.07;;;;;;;;;;10193635;28;20046;-71
2022/09/14 12:00:22;;;;;;;11.00;8.70;;;;;;;;;;10163202;28;20043;-71
2022/09/14 12:05:21;;;;;;;10.45;8.60;;;;;;;;;;10171490;28;20060;-71
2022/09/14 12:10:18;;;;;;;17.50;8.07;;;;;;;;;;10192837;28;20049;-72
2022/09/14 12:15:24;;;;;;;11.10;8.40;;;;;;;;;;10191928;28;20050;-72
2022/09/14 12:20:36;;;;;;;9.68;8.68;;;;;;;;;;10190073;28;20046;-71
2022/09/14 12:25:32;;;;;;;11.55;9.55;;;;;;;;;;10173090;28;20053;-71
2022/09/14 12:30:34;;;;;;;10.70;8.80;;;;;;;;;;10192558;28;20136;-72
2022/09/14 12:35:39;;;;;;;10.40;9.38;;;;;;;;;;10192802;28;20048;-72
2022/09/14 12:40:35;;;;;;;11.52;8.10;;;;;;;;;;10192254;28;20054;-72
2022/09/14 12:45:58;;;;;;;10.88;8.18;;;;;;;;;;10192447;28;20529;-72
2022/09/14 12:50:55;;;;;;;11.73;7.95;;;;;;;;;;10159382;28;20125;-72
2022/09/14 12:55:54;;;;;;;14.88;8.45;;;;;;;;;;10182108;28;20045;-72
2022/09/14 13:01:11;;;;;;;13.15;8.63;;;;;;;;;;10160631;28;20064;-72
2022/09/14 13:06:11;;;;;;;10.80;8.73;;;;;;;;;;10185180;28;20061;-71
2022/09/14 13:11:08;;;;;;;11.45;9.57;;;;;;;;;;10199165;28;20038;-72
2022/09/14 13:16:05;;;;;;;13.10;9.48;;;;;;;;;;10198466;28;20046;-71
2022/09/14 13:21:18;;;;;;;12.93;10.23;;;;;;;;;;10186324;28;20046;-71
2022/09/14 13:26:23;;;;;;;13.98;9.18;;;;;;;;;;10183650;28;20081;-72
2022/09/14 13:31:24;;;;;;;14.85;9.40;;;;;;;;;;10198248;28;20702;-72
2022/09/14 13:36:22;;;;;;;12.77;9.20;;;;;;;;;;10197425;28;20050;-72
2022/09/14 13:41:21;;;;;;;10.63;8.32;;;;;;;;;;10198428;28;20113;-72
2022/09/14 13:46:17;;;;;;;13.38;9.05;;;;;;;;;;10197585;28;20050;-71
2022/09/14 13:51:23;;;;;;;12.23;9.40;;;;;;;;;;10198159;28;20054;-71
2022/09/14 13:56:20;;;;;;;11.13;9.50;;;;;;;;;;10195507;28;20056;-71
2022/09/14 14:01:23;;;;;;;12.13;9.00;;;;;;;;;;10197378;28;20045;-71
2022/09/14 14:06:19;;;;;;;14.13;9.25;;;;;;;;;;10195386;28;20050;-71
2022/09/14 14:11:24;;;;;;;12.73;9.18;;;;;;;;;;10196996;28;20571;-71
2022/09/14 14:16:22;;;;;;;12.05;9.32;;;;;;;;;;10196229;28;20046;-72
2022/09/14 14:21:21;;;;;;;10.27;9.20;;;;;;;;;;10196697;28;20061;-72
2022/09/14 14:26:25;;;;;;;9.80;8.82;;;;;;;;;;10183784;28;20046;-72
2022/09/14 14:31:25;;;;;;;10.00;9.05;;;;;;;;;;10186419;28;20042;-72
2022/09/14 14:36:21;;;;;;;9.50;8.00;;;;;;;;;;10182873;28;20050;-72
2022/09/14 14:41:19;;;;;;;9.50;8.60;;;;;;;;;;10177596;28;20042;-71
2022/09/14 14:46:15;;;;;;;12.30;8.38;;;;;;;;;;10181465;28;20053;-71
2022/09/14 14:51:13;;;;;;;8.25;7.50;;;;;;;;;;10159843;28;20072;-71
2022/09/14 14:56:10;;;;;;;10.40;9.20;;;;;;;;;;10180145;28;20531;-72
2022/09/14 15:01:07;;;;;;;12.25;9.73;;;;;;;;;;10195310;28;20053;-72
2022/09/14 15:06:10;;;;;;;10.10;9.10;;;;;;;;;;10189108;28;20076;-72
2022/09/14 15:11:15;;;;;;;9.38;8.57;;;;;;;;;;10194405;28;20053;-71
2022/09/14 15:16:12;;;;;;;9.25;8.35;;;;;;;;;;10193855;28;20132;-72
2022/09/14 15:21:09;;;;;;;10.23;8.27;;;;;;;;;;10193909;28;20512;-71
2022/09/14 15:26:05;;;;;;;8.48;7.75;;;;;;;;;;10194064;28;20158;-72
2022/09/14 15:31:01;;;;;;;10.43;8.88;;;;;;;;;;10194023;28;20081;-72
2022/09/14 15:36:03;;;;;;;10.48;8.95;;;;;;;;;;10194055;28;20715;-71
2022/09/14 15:40:59;;;;;;;9.45;8.50;;;;;;;;;;10169569;28;20046;-71
2022/09/14 15:46:00;;;;;;;8.52;7.90;;;;;;;;;;10176798;28;20046;-72
2022/09/14 15:50:59;;;;;;;9.32;8.52;;;;;;;;;;10153848;28;20574;-72
2022/09/14 15:55:56;;;;;;;9.90;9.00;;;;;;;;;;10156806;28;20038;-72
2022/09/14 16:00:52;;;;;;;8.90;8.20;;;;;;;;;;10153128;28;20046;-72
2022/09/14 16:05:48;;;;;;;8.85;8.02;;;;;;;;;;10175893;28;20443;-72
2022/09/14 16:10:44;;;;;;;7.88;7.22;;;;;;;;;;10192971;28;20049;-72
2022/09/14 16:15:41;;;;;;;8.40;7.60;;;;;;;;;;10192748;28;20057;-71
2022/09/14 16:20:37;;;;;;;8.63;7.93;;;;;;;;;;10192340;28;20046;-69
2022/09/14 16:25:39;;;;;;;7.93;7.22;;;;;;;;;;10192982;28;20064;-69
2022/09/14 16:30:35;;;;;;;8.45;7.60;;;;;;;;;;10200264;28;20573;-69
2022/09/14 16:35:32;;;;;;;8.55;7.43;;;;;;;;;;10200485;28;20050;-69
2022/09/14 16:40:28;;;;;;;8.70;8.00;;;;;;;;;;10180083;28;20393;-69
2022/09/14 16:45:24;;;;;;;8.88;8.07;;;;;;;;;;10179188;28;20129;-69
2022/09/14 16:50:20;;;;;;;9.07;8.35;;;;;;;;;;10199441;28;20638;-69
2022/09/14 16:55:17;;;;;;;8.50;7.70;;;;;;;;;;10198288;28;20065;-69
2022/09/14 17:00:13;;;;;;;9.43;8.52;;;;;;;;;;10199994;28;20057;-69
2022/09/14 17:05:09;;;;;;;11.20;8.90;;;;;;;;;;10191000;28;20065;-69
2022/09/14 17:10:06;;;;;;;10.02;8.55;;;;;;;;;;10198839;28;20057;-69
2022/09/14 17:15:03;;;;;;;8.43;7.72;;;;;;;;;;10184264;28;20046;-69
2022/09/14 17:19:59;;;;;;;8.90;8.20;;;;;;;;;;10199159;28;20045;-69
2022/09/14 17:24:55;;;;;;;9.57;8.68;;;;;;;;;;10177122;28;20050;-69
2022/09/14 17:29:52;;;;;;;8.38;7.72;;;;;;;;;;10184434;28;20046;-69
2022/09/14 17:34:48;;;;;;;9.15;8.43;;;;;;;;;;10172559;28;20046;-69
2022/09/14 17:39:45;;;;;;;10.02;9.13;;;;;;;;;;10195713;28;20045;-69
2022/09/14 17:44:41;;;;;;;9.10;8.40;;;;;;;;;;10197641;28;20104;-69
2022/09/14 17:49:38;;;;;;;9.60;8.90;;;;;;;;;;10196649;28;20053;-69
2022/09/14 17:54:34;;;;;;;10.95;9.95;;;;;;;;;;10197271;28;20508;-69
2022/09/14 17:59:30;;;;;;;9.30;8.60;;;;;;;;;;10196494;28;20042;-69
2022/09/14 18:04:26;;;;;;;9.95;8.95;;;;;;;;;;10197073;28;20038;-69
2022/09/14 18:09:23;;;;;;;13.82;10.68;;;;;;;;;;10196401;28;20217;-69
2022/09/14 18:14:19;;;;;;;9.88;8.98;;;;;;;;;;10195984;28;20041;-69
2022/09/14 18:19:16;;;;;;;10.38;9.48;;;;;;;;;;10190383;28;20045;-69
2022/09/14 18:24:13;;;;;;;9.98;9.23;;;;;;;;;;10165581;28;20046;-69
2022/09/14 18:29:12;;;;;;;10.80;9.82;;;;;;;;;;10195174;28;20835;-69
2022/09/14 18:34:09;;;;;;;10.52;9.73;;;;;;;;;;10195866;28;20167;-69
2022/09/14 18:39:05;;;;;;;11.43;10.43;;;;;;;;;;10195060;28;20527;-69
2022/09/14 18:44:01;;;;;;;10.90;10.10;;;;;;;;;;10195775;28;20045;-69
2022/09/14 18:48:58;;;;;;;11.27;10.35;;;;;;;;;;10162749;28;20054;-69
2022/09/14 18:53:56;;;;;;;19.00;11.27;;;;;;;;;;10162122;28;20411;-69
2022/09/14 18:58:52;;;;;;;10.73;9.93;;;;;;;;;;10159664;28;20394;-69
2022/09/14 19:03:48;;;;;;;11.23;10.10;;;;;;;;;;10160449;28;20045;-69
2022/09/14 19:08:45;;;;;;;12.35;11.30;;;;;;;;;;10193939;28;20048;-69
2022/09/14 19:13:41;;;;;;;12.68;11.60;;;;;;;;;;10194221;28;20049;-69
2022/09/14 19:18:38;;;;;;;13.32;12.27;;;;;;;;;;10194178;28;20229;-69
2022/09/14 19:23:35;;;;;;;13.60;12.65;;;;;;;;;;10193683;28;20111;-69
2022/09/14 19:28:32;;;;;;;14.60;13.50;;;;;;;;;;10193984;28;20526;-69
2022/09/14 19:33:29;;;;;;;15.25;14.20;;;;;;;;;;10166370;28;20041;-68
2022/09/14 19:38:27;;;;;;;16.70;15.45;;;;;;;;;;10193279;28;20042;-69
2022/09/14 19:43:23;;;;;;;16.52;15.43;;;;;;;;;;10160257;28;20056;-69
2022/09/14 19:48:19;;;;;;;18.00;16.80;;;;;;;;;;10192939;28;20054;-69
2022/09/14 19:53:15;;;;;;;17.13;16.02;;;;;;;;;;10193801;28;20049;-69
2022/09/14 19:58:12;;;;;;;17.13;15.95;;;;;;;;;;10192909;28;20050;-69
2022/09/14 20:03:08;;;;;;;17.15;15.52;;;;;;;;;;10191958;28;20042;-69
2022/09/14 20:08:04;;;;;;;18.25;17.15;;;;;;;;;;10192774;28;20046;-69
2022/09/14 20:13:01;;;;;;;18.42;17.13;;;;;;;;;;10192760;28;20064;-69
2022/09/14 20:17:57;;;;;;;21.85;20.15;;;;;;;;;;10192705;28;20387;-69
2022/09/14 20:22:53;;;;;;;19.98;18.67;;;;;;;;;;10192392;28;20060;-69
2022/09/14 20:27:49;;;;;;;22.17;20.52;;;;;;;;;;10188145;28;20043;-70
2022/09/14 20:32:45;;;;;;;23.85;22.25;;;;;;;;;;10153058;28;20427;-69
2022/09/14 20:37:42;;;;;;;22.75;21.35;;;;;;;;;;10189797;28;20050;-69
2022/09/14 20:42:38;;;;;;;24.95;23.55;;;;;;;;;;10192824;28;20049;-69
2022/09/14 20:47:35;;;;;;;28.55;26.73;;;;;;;;;;10176640;28;20137;-69
2022/09/14 20:52:31;;;;;;;29.75;28.08;;;;;;;;;;10152632;28;20046;-69
2022/09/14 20:57:27;;;;;;;32.47;30.58;;;;;;;;;;10157801;28;20066;-69
2022/09/14 21:02:23;;;;;;;34.95;32.88;;;;;;;;;;10155561;28;20046;-69
2022/09/14 21:07:21;;;;;;;38.25;35.78;;;;;;;;;;10192011;28;20574;-69
2022/09/14 21:12:17;;;;;;;38.88;35.88;;;;;;;;;;10174402;28;20054;-69
2022/09/14 21:17:13;;;;;;;38.67;36.13;;;;;;;;;;10192799;28;20061;-69
2022/09/14 21:22:09;;;;;;;36.78;34.78;;;;;;;;;;10198025;28;20053;-69
2022/09/14 21:27:06;;;;;;;36.47;34.08;;;;;;;;;;10198374;28;20052;-69
2022/09/14 21:32:02;;;;;;;36.92;34.70;;;;;;;;;;10172087;28;20054;-70
2022/09/14 21:37:04;;;;;;;33.85;31.65;;;;;;;;;;10190550;28;20058;-69
2022/09/14 21:42:00;;;;;;;30.85;28.83;;;;;;;;;;10159157;28;20056;-69
2022/09/14 21:46:56;;;;;;;30.08;28.38;;;;;;;;;;10172612;28;20054;-69
2022/09/14 21:51:53;;;;;;;30.40;28.40;;;;;;;;;;10158289;28;20129;-69
2022/09/14 21:56:49;;;;;;;31.73;29.83;;;;;;;;;;10187736;28;20042;-69
2022/09/14 22:01:46;;;;;;;33.95;31.25;;;;;;;;;;10197289;28;20762;-69
2022/09/14 22:06:44;;;;;;;31.00;29.00;;;;;;;;;;10196241;28;20050;-69
2022/09/14 22:11:40;;;;;;;31.83;29.60;;;;;;;;;;10196669;28;20042;-69
2022/09/14 22:16:37;;;;;;;30.52;28.77;;;;;;;;;;10196602;28;20054;-69
2022/09/14 22:21:35;;;;;;;34.53;32.38;;;;;;;;;;10196216;28;20050;-70
2022/09/14 22:26:32;;;;;;;32.95;31.05;;;;;;;;;;10195449;28;20057;-69
2022/09/14 22:31:30;;;;;;;30.60;28.80;;;;;;;;;;10195926;28;20046;-69
2022/09/14 22:36:26;;;;;;;31.67;29.60;;;;;;;;;;10195739;28;20738;-69
2022/09/14 22:41:24;;;;;;;30.58;28.38;;;;;;;;;;10167996;28;20057;-69
2022/09/14 22:46:21;;;;;;;29.13;27.45;;;;;;;;;;10181640;28;20049;-69
2022/09/14 22:51:22;;;;;;;29.00;26.98;;;;;;;;;;10195247;28;20073;-69
2022/09/14 22:56:18;;;;;;;31.33;29.10;;;;;;;;;;10182414;28;20459;-69
2022/09/14 23:01:16;;;;;;;29.88;28.02;;;;;;;;;;10155630;28;20050;-69
2022/09/14 23:06:12;;;;;;;33.13;30.70;;;;;;;;;;10180115;28;20056;-69
2022/09/14 23:11:10;;;;;;;31.17;29.17;;;;;;;;;;10194922;28;20507;-69
2022/09/14 23:16:10;;;;;;;28.23;26.40;;;;;;;;;;10170479;28;20042;-69
2022/09/14 23:21:06;;;;;;;26.83;25.15;;;;;;;;;;10154115;28;20042;-69
2022/09/14 23:26:07;;;;;;;26.17;24.27;;;;;;;;;;10180833;28;20052;-69
2022/09/14 23:31:04;;;;;;;24.02;22.52;;;;;;;;;;10193741;28;20045;-69
2022/09/14 23:36:00;;;;;;;24.58;22.58;;;;;;;;;;10193954;28;20128;-69
2022/09/14 23:40:57;;;;;;;23.83;22.40;;;;;;;;;;10173928;28;20579;-69
2022/09/14 23:45:53;;;;;;;24.63;22.95;;;;;;;;;;10176567;28;20048;-69
2022/09/14 23:50:57;;;;;;;25.02;23.00;;;;;;;;;;10192803;28;20037;-69
2022/09/14 23:55:53;;;;;;;24.00;22.40;;;;;;;;;;10193299;28;20042;-69
